Time;durP1;ratioP1;P1;durP2;ratioP2;P2;SDS_P1;SDS_P2;PMS_P1;PMS_P2;Temp;Humidity;BMP_temperature;BMP_pressure;BME280_temperature;BME280_humidity;BME280_pressure;Samples;Min_cycle;Max_cycle;Signal;HPM_P1;HPM_P2
2021/10/29 00:00:55;0.00;0.00;0.62;0.00;0.00;0.62;1.80;1.40;;;27.70;29.50;;;;;;2253257;61;20456;-62
2021/10/29 00:03:40;0.00;0.00;0.62;0.00;0.00;0.62;1.80;1.30;;;27.70;29.50;;;;;;2253335;61;20368;-63
2021/10/29 00:06:26;0.00;0.00;0.62;0.00;0.00;0.62;1.60;1.30;;;27.70;29.50;;;;;;2253236;61;20435;-63
2021/10/29 00:09:10;0.00;0.00;0.62;0.00;0.00;0.62;1.93;1.10;;;27.70;29.50;;;;;;2253405;61;20371;-62
2021/10/29 00:11:55;0.00;0.00;0.62;0.00;0.00;0.62;1.57;1.10;;;27.70;29.50;;;;;;2253257;61;20759;-66
2021/10/29 00:14:41;0.00;0.00;0.62;0.00;0.00;0.62;1.60;1.27;;;27.60;29.50;;;;;;2253550;61;20752;-65
2021/10/29 00:17:25;0.00;0.00;0.62;0.00;0.00;0.62;1.73;1.47;;;27.60;29.40;;;;;;2253383;61;20395;-65
2021/10/29 00:20:11;0.00;0.00;0.62;0.00;0.00;0.62;2.40;1.70;;;27.60;29.90;;;;;;2253424;61;20472;-68
2021/10/29 00:22:57;0.00;0.00;0.62;0.00;0.00;0.62;4.60;1.90;;;27.60;29.30;;;;;;2253229;61;20380;-62
2021/10/29 00:25:42;0.00;0.00;0.62;0.00;0.00;0.62;3.00;1.97;;;27.60;29.30;;;;;;2253084;61;20387;-65
2021/10/29 00:28:26;0.00;0.00;0.62;0.00;0.00;0.62;2.73;2.40;;;27.60;29.30;;;;;;2253116;61;20406;-64
2021/10/29 00:31:11;0.00;0.00;0.62;0.00;0.00;0.62;4.40;3.40;;;27.50;29.10;;;;;;2253245;61;20387;-66
2021/10/29 00:33:56;0.00;0.00;0.62;0.00;0.00;0.62;3.80;3.40;;;27.50;29.00;;;;;;2253259;61;20433;-64
2021/10/29 00:36:40;0.00;0.00;0.62;0.00;0.00;0.62;4.27;3.87;;;27.40;28.80;;;;;;2253020;61;20431;-64
2021/10/29 00:39:26;0.00;0.00;0.62;0.00;0.00;0.62;4.57;3.77;;;27.40;28.60;;;;;;2253284;61;20402;-65
2021/10/29 00:42:10;0.00;0.00;0.62;0.00;0.00;0.62;4.80;4.30;;;27.40;28.40;;;;;;2253352;61;20372;-67
2021/10/29 00:44:55;0.00;0.00;0.62;0.00;0.00;0.62;4.37;3.50;;;27.30;28.20;;;;;;2253058;61;20423;-63
2021/10/29 00:47:39;0.00;0.00;0.62;0.00;0.00;0.62;4.77;4.07;;;27.30;28.20;;;;;;2253166;61;20715;-63
2021/10/29 00:50:24;0.00;0.00;0.62;0.00;0.00;0.62;5.87;5.27;;;27.20;28.00;;;;;;2253180;61;20359;-66
2021/10/29 00:53:10;0.00;0.00;0.62;0.00;0.00;0.62;4.40;3.80;;;27.20;27.90;;;;;;2253092;61;20430;-66
2021/10/29 00:55:57;0.00;0.00;0.62;0.00;0.00;0.62;4.57;4.17;;;27.10;27.70;;;;;;2253118;61;20370;-65
2021/10/29 00:58:42;0.00;0.00;0.62;0.00;0.00;0.62;4.40;4.00;;;27.00;27.70;;;;;;2253156;61;20692;-65
2021/10/29 01:01:26;0.00;0.00;0.62;0.00;0.00;0.62;5.03;3.73;;;27.00;27.80;;;;;;2253156;61;20391;-66
2021/10/29 01:04:11;0.00;0.00;0.62;0.00;0.00;0.62;5.43;3.80;;;26.90;27.70;;;;;;2253225;61;20415;-66
2021/10/29 01:06:57;0.00;0.00;0.62;0.00;0.00;0.62;6.30;4.43;;;26.80;27.70;;;;;;2252662;61;20759;-66
2021/10/29 01:09:41;0.00;0.00;0.62;0.00;0.00;0.62;6.70;4.40;;;26.80;27.70;;;;;;2253141;61;20360;-64
2021/10/29 01:12:27;0.00;0.00;0.62;0.00;0.00;0.62;3.90;3.40;;;26.70;27.60;;;;;;2259092;61;20363;-65
2021/10/29 01:15:11;0.00;0.00;0.62;0.00;0.00;0.62;5.10;4.60;;;26.70;27.60;;;;;;2253003;61;20441;-65
2021/10/29 01:17:56;0.00;0.00;0.62;0.00;0.00;0.62;5.73;4.00;;;26.60;27.50;;;;;;2252865;61;20415;-65
2021/10/29 01:20:42;0.00;0.00;0.62;0.00;0.00;0.62;4.63;4.23;;;26.50;27.50;;;;;;2253286;61;20784;-64
2021/10/29 01:23:27;0.00;0.00;0.62;0.00;0.00;0.62;5.67;4.47;;;26.50;27.50;;;;;;2253343;61;20364;-63
2021/10/29 01:26:15;0.00;0.00;0.62;0.00;0.00;0.62;5.63;4.50;;;26.40;27.50;;;;;;2253594;61;20859;-65
2021/10/29 01:29:00;0.00;0.00;0.62;0.00;0.00;0.62;4.37;3.80;;;26.40;27.60;;;;;;2253638;61;20432;-63
2021/10/29 01:31:45;0.00;0.00;0.62;0.00;0.00;0.62;4.57;4.13;;;26.30;27.60;;;;;;2253944;61;20367;-65
2021/10/29 01:34:29;0.00;0.00;0.62;0.00;0.00;0.62;4.77;4.23;;;26.30;27.70;;;;;;2253792;61;20366;-65
2021/10/29 01:37:15;0.00;0.00;0.62;0.00;0.00;0.62;4.63;4.07;;;26.30;27.70;;;;;;2253351;61;20404;-65
2021/10/29 01:39:59;0.00;0.00;0.62;0.00;0.00;0.62;4.87;3.30;;;26.30;27.70;;;;;;2253893;61;20364;-65
2021/10/29 01:42:47;0.00;0.00;0.62;0.00;0.00;0.62;4.53;3.57;;;26.20;27.70;;;;;;2253192;61;20360;-65
2021/10/29 01:45:32;0.00;0.00;0.62;0.00;0.00;0.62;4.10;3.63;;;26.20;27.80;;;;;;2253603;61;20472;-63
2021/10/29 01:48:17;0.00;0.00;0.62;0.00;0.00;0.62;4.23;3.50;;;26.20;27.80;;;;;;2253612;61;20344;-66
2021/10/29 01:51:02;0.00;0.00;0.62;0.00;0.00;0.62;5.10;3.90;;;26.20;27.80;;;;;;2253656;61;20356;-65
2021/10/29 01:53:48;0.00;0.00;0.62;0.00;0.00;0.62;3.73;3.33;;;26.20;27.80;;;;;;2491075;53;20391;-64
2021/10/29 01:56:33;0.00;0.00;0.62;0.00;0.00;0.62;4.10;3.50;;;26.10;27.80;;;;;;2253444;61;20380;-65
2021/10/29 01:59:17;0.00;0.00;0.62;0.00;0.00;0.62;3.87;3.20;;;26.20;27.80;;;;;;2253229;61;20662;-64
2021/10/29 02:02:02;0.00;0.00;0.62;0.00;0.00;0.62;4.00;3.60;;;26.10;27.80;;;;;;2254006;61;20360;-62
2021/10/29 02:04:47;0.00;0.00;0.62;0.00;0.00;0.62;4.00;3.20;;;26.10;27.80;;;;;;2253200;61;20419;-66
2021/10/29 02:07:31;0.00;0.00;0.62;0.00;0.00;0.62;4.37;3.97;;;26.10;27.80;;;;;;2253733;61;20452;-63
2021/10/29 02:10:17;0.00;0.00;0.62;0.00;0.00;0.62;4.37;3.90;;;26.10;27.80;;;;;;2253706;61;20368;-63
2021/10/29 02:13:02;0.00;0.00;0.62;0.00;0.00;0.62;4.40;3.80;;;26.00;27.70;;;;;;2253453;61;20359;-63
2021/10/29 02:15:47;0.00;0.00;0.62;0.00;0.00;0.62;3.40;3.10;;;26.00;27.70;;;;;;2253609;61;20387;-65
2021/10/29 02:18:32;0.00;0.00;0.62;0.00;0.00;0.62;4.63;3.73;;;26.00;27.70;;;;;;2253573;61;20419;-64
2021/10/29 02:21:16;0.00;0.00;0.62;0.00;0.00;0.62;3.50;3.10;;;26.00;27.70;;;;;;2253764;61;20395;-62
2021/10/29 02:24:01;0.00;0.00;0.62;0.00;0.00;0.62;4.47;3.77;;;26.00;27.80;;;;;;2253695;61;20380;-63
2021/10/29 02:26:47;0.00;0.00;0.62;0.00;0.00;0.62;4.73;4.13;;;25.90;27.80;;;;;;2253428;61;20407;-63
2021/10/29 02:29:32;0.00;0.00;0.62;0.00;0.00;0.62;3.90;3.37;;;25.90;27.80;;;;;;2253710;61;20497;-63
2021/10/29 02:32:17;0.00;0.00;0.62;0.00;0.00;0.62;5.00;4.43;;;25.90;27.80;;;;;;2253537;61;20411;-63
2021/10/29 02:35:02;0.00;0.00;0.62;0.00;0.00;0.62;5.83;4.67;;;25.90;27.70;;;;;;2253501;61;20355;-62
2021/10/29 02:37:47;0.00;0.00;0.62;0.00;0.00;0.62;6.00;4.70;;;25.80;27.60;;;;;;2253443;61;20374;-65
2021/10/29 02:40:31;0.00;0.00;0.62;0.00;0.00;0.62;4.73;3.83;;;25.80;27.60;;;;;;2253697;61;20426;-65
2021/10/29 02:43:17;0.00;0.00;0.62;0.00;0.00;0.62;5.23;4.47;;;25.80;27.60;;;;;;2253669;61;20419;-65
2021/10/29 02:46:02;0.00;0.00;0.62;0.00;0.00;0.62;4.87;3.93;;;25.80;27.60;;;;;;2253513;61;20388;-64
2021/10/29 02:48:46;0.00;0.00;0.62;0.00;0.00;0.62;4.90;4.13;;;25.70;27.50;;;;;;2253385;61;20372;-66
2021/10/29 02:51:31;0.00;0.00;0.62;0.00;0.00;0.62;6.17;4.77;;;25.70;27.50;;;;;;2253620;61;20576;-64
2021/10/29 02:54:16;0.00;0.00;0.62;0.00;0.00;0.62;5.90;4.90;;;25.60;27.50;;;;;;2253550;61;20359;-65
2021/10/29 02:57:00;0.00;0.00;0.62;0.00;0.00;0.62;4.80;4.00;;;25.50;27.40;;;;;;2255604;61;20589;-65
2021/10/29 02:59:46;0.00;0.00;0.62;0.00;0.00;0.62;7.17;4.77;;;25.50;27.40;;;;;;2253324;61;20360;-63
2021/10/29 03:02:30;0.00;0.00;0.62;0.00;0.00;0.62;4.77;4.27;;;25.50;27.50;;;;;;2253427;61;20359;-65
2021/10/29 03:05:15;0.00;0.00;0.62;0.00;0.00;0.62;6.07;4.80;;;25.50;27.50;;;;;;2253286;61;20383;-65
2021/10/29 03:08:00;0.00;0.00;0.62;0.00;0.00;0.62;5.80;5.07;;;25.40;27.50;;;;;;2253468;61;20399;-65
2021/10/29 03:10:45;0.00;0.00;0.62;0.00;0.00;0.62;5.63;4.97;;;25.30;27.50;;;;;;2253647;61;20388;-64
2021/10/29 03:13:30;0.00;0.00;0.62;0.00;0.00;0.62;5.47;4.53;;;25.30;27.40;;;;;;2253337;61;20407;-65
2021/10/29 03:16:16;0.00;0.00;0.62;0.00;0.00;0.62;5.03;3.60;;;25.30;27.50;;;;;;2253399;61;20605;-64
2021/10/29 03:19:00;0.00;0.00;0.62;0.00;0.00;0.62;4.67;4.10;;;25.20;27.50;;;;;;2253304;61;20419;-64
2021/10/29 03:21:44;0.00;0.00;0.62;0.00;0.00;0.62;4.40;3.87;;;25.20;27.60;;;;;;2253519;61;20372;-63
2021/10/29 03:24:29;0.00;0.00;0.62;0.00;0.00;0.62;6.57;5.70;;;25.20;27.60;;;;;;2253316;61;20387;-65
2021/10/29 03:27:13;0.00;0.00;0.62;0.00;0.00;0.62;4.83;4.43;;;25.10;27.40;;;;;;2253243;61;20394;-64
2021/10/29 03:29:58;0.00;0.00;0.62;0.00;0.00;0.62;6.30;5.40;;;25.10;27.50;;;;;;2253453;61;20403;-65
2021/10/29 03:32:44;0.00;0.00;0.62;0.00;0.00;0.62;5.80;4.67;;;25.10;27.50;;;;;;2253385;61;20476;-64
2021/10/29 03:35:29;0.00;0.00;0.62;0.00;0.00;0.62;4.10;3.70;;;25.10;27.50;;;;;;2253183;61;20359;-64
2021/10/29 03:41:20;0.00;0.00;0.62;0.00;0.00;0.62;6.37;5.30;;;25.10;27.60;;;;;;2253270;61;20399;-65
2021/10/29 03:44:36;0.00;0.00;0.62;0.00;0.00;0.62;5.97;4.77;;;25.00;27.60;;;;;;2253477;61;20415;-63
2021/10/29 03:47:21;0.00;0.00;0.62;0.00;0.00;0.62;5.33;4.83;;;25.00;27.60;;;;;;2253370;61;20427;-66
2021/10/29 03:50:20;0.00;0.00;0.62;0.00;0.00;0.62;5.77;4.53;;;25.00;27.60;;;;;;2255645;61;20756;-64
2021/10/29 03:53:22;0.00;0.00;0.62;0.00;0.00;0.62;7.00;5.10;;;24.90;27.60;;;;;;2253296;61;20464;-65
2021/10/29 03:56:12;0.00;0.00;0.62;0.00;0.00;0.62;4.93;4.43;;;24.90;27.60;;;;;;2253118;61;20746;-65
2021/10/29 03:58:59;0.00;0.00;0.62;0.00;0.00;0.62;5.00;4.17;;;24.90;27.60;;;;;;2253359;61;20360;-65
2021/10/29 04:01:43;0.00;0.00;0.62;0.00;0.00;0.62;6.53;5.70;;;24.90;27.70;;;;;;2253308;61;20723;-63
2021/10/29 04:04:28;0.00;0.00;0.62;0.00;0.00;0.62;6.53;5.60;;;24.90;27.70;;;;;;2253240;61;20476;-64
2021/10/29 04:07:14;0.00;0.00;0.62;0.00;0.00;0.62;6.63;5.23;;;24.80;27.60;;;;;;2253364;61;20423;-62
2021/10/29 04:09:58;0.00;0.00;0.62;0.00;0.00;0.62;5.97;4.63;;;24.80;27.60;;;;;;2253241;61;20407;-63
2021/10/29 04:12:43;0.00;0.00;0.62;0.00;0.00;0.62;5.67;4.53;;;24.80;27.70;;;;;;2253283;61;20363;-64
2021/10/29 04:15:28;0.00;0.00;0.62;0.00;0.00;0.62;6.07;5.40;;;24.70;27.60;;;;;;2253286;61;20395;-64
2021/10/29 04:18:13;0.00;0.00;0.62;0.00;0.00;0.62;6.30;5.70;;;24.70;27.60;;;;;;2253294;61;20368;-64
2021/10/29 04:20:58;0.00;0.00;0.62;0.00;0.00;0.62;5.90;5.20;;;24.70;27.60;;;;;;2253296;61;20468;-65
2021/10/29 04:23:43;0.00;0.00;0.62;0.00;0.00;0.62;5.80;5.20;;;24.60;27.50;;;;;;2253302;61;20491;-63
2021/10/29 04:26:29;0.00;0.00;0.62;0.00;0.00;0.62;7.10;5.90;;;24.60;27.50;;;;;;2252952;61;20395;-63
2021/10/29 04:29:14;0.00;0.00;0.62;0.00;0.00;0.62;6.77;5.63;;;24.60;27.50;;;;;;2253255;61;20359;-64
2021/10/29 04:31:59;0.00;0.00;0.62;0.00;0.00;0.62;9.10;6.30;;;24.50;27.50;;;;;;2253481;61;20355;-63
2021/10/29 04:34:43;0.00;0.00;0.62;0.00;0.00;0.62;5.60;5.03;;;24.50;27.50;;;;;;2252988;61;20403;-65
2021/10/29 04:37:28;0.00;0.00;0.62;0.00;0.00;0.62;8.17;6.77;;;24.50;27.60;;;;;;2253171;61;20379;-63
2021/10/29 04:40:14;0.00;0.00;0.62;0.00;0.00;0.62;6.40;5.53;;;24.40;27.50;;;;;;2253144;61;20483;-63
2021/10/29 04:42:58;0.00;0.00;0.62;0.00;0.00;0.62;5.10;4.60;;;24.30;27.40;;;;;;2253339;61;20360;-64
2021/10/29 04:45:43;0.00;0.00;0.62;0.00;0.00;0.62;8.80;6.90;;;24.30;27.50;;;;;;2253077;61;20391;-64
2021/10/29 04:48:27;0.00;0.00;0.62;0.00;0.00;0.62;7.93;6.40;;;24.30;27.50;;;;;;2252755;61;20351;-65
2021/10/29 04:51:12;0.00;0.00;0.62;0.00;0.00;0.62;6.60;6.00;;;24.20;27.50;;;;;;2252679;61;20392;-64
2021/10/29 04:53:57;0.00;0.00;0.62;0.00;0.00;0.62;7.67;6.87;;;24.20;27.50;;;;;;2253451;61;20359;-65
2021/10/29 04:56:43;0.00;0.00;0.62;0.00;0.00;0.62;7.00;6.30;;;24.10;27.50;;;;;;2253797;61;20380;-65
2021/10/29 04:59:28;0.00;0.00;0.62;0.00;0.00;0.62;7.20;6.37;;;24.10;27.50;;;;;;2254060;61;20494;-63
2021/10/29 05:02:12;0.00;0.00;0.62;0.00;0.00;0.62;6.70;5.30;;;24.10;27.60;;;;;;2253909;61;20379;-65
2021/10/29 05:04:57;0.00;0.00;0.62;0.00;0.00;0.62;6.77;6.10;;;24.00;27.60;;;;;;2253780;61;20432;-63
2021/10/29 05:07:41;0.00;0.00;0.62;0.00;0.00;0.62;7.67;6.23;;;24.00;27.70;;;;;;2253892;61;20384;-65
2021/10/29 05:10:26;0.00;0.00;0.62;0.00;0.00;0.62;8.97;6.90;;;24.00;27.70;;;;;;2253747;61;20359;-64
2021/10/29 05:13:12;0.00;0.00;0.62;0.00;0.00;0.62;6.97;6.20;;;23.90;27.60;;;;;;2253808;61;20422;-63
2021/10/29 05:15:56;0.00;0.00;0.62;0.00;0.00;0.62;8.10;6.00;;;23.90;27.70;;;;;;2253267;61;20375;-65
2021/10/29 05:18:41;0.00;0.00;0.62;0.00;0.00;0.62;6.37;5.17;;;23.90;27.70;;;;;;2253783;61;20383;-65
2021/10/29 05:21:26;0.00;0.00;0.62;0.00;0.00;0.62;8.40;5.93;;;23.90;27.80;;;;;;2254026;61;20391;-63
2021/10/29 05:24:11;0.00;0.00;0.62;0.00;0.00;0.62;6.87;6.17;;;23.90;27.80;;;;;;2253751;61;20727;-64
2021/10/29 05:26:55;0.00;0.00;0.62;0.00;0.00;0.62;6.27;5.40;;;23.80;27.80;;;;;;2253702;61;20426;-63
2021/10/29 05:29:41;0.00;0.00;0.62;0.00;0.00;0.62;6.03;5.43;;;23.80;27.90;;;;;;2253874;61;20368;-64
2021/10/29 05:32:26;0.00;0.00;0.62;0.00;0.00;0.62;6.13;5.10;;;23.80;27.90;;;;;;2253619;61;20360;-63
2021/10/29 05:35:11;0.00;0.00;0.62;0.00;0.00;0.62;5.20;4.40;;;23.80;27.90;;;;;;2253599;61;20352;-65
2021/10/29 05:37:55;0.00;0.00;0.62;0.00;0.00;0.62;6.53;5.87;;;23.80;27.90;;;;;;2253678;61;20453;-64
2021/10/29 05:40:40;0.00;0.00;0.62;0.00;0.00;0.62;6.43;5.50;;;23.80;27.90;;;;;;2253805;61;20367;-64
2021/10/29 05:43:25;0.00;0.00;0.62;0.00;0.00;0.62;7.40;5.93;;;23.80;27.90;;;;;;2253873;61;20384;-65
2021/10/29 05:46:10;0.00;0.00;0.62;0.00;0.00;0.62;6.00;5.40;;;23.80;27.90;;;;;;2253845;61;20775;-65
2021/10/29 05:48:55;0.00;0.00;0.62;0.00;0.00;0.62;5.47;4.97;;;23.80;27.90;;;;;;2253406;61;20364;-63
2021/10/29 05:51:48;0.00;0.00;0.62;0.00;0.00;0.62;6.10;5.10;;;23.80;27.90;;;;;;2253430;61;20671;-65
2021/10/29 05:57:16;0.00;0.00;0.62;0.00;0.00;0.62;6.80;5.33;;;23.80;27.90;;;;;;2254170;61;20391;-64
2021/10/29 06:00:01;0.00;0.00;0.62;0.00;0.00;0.62;5.63;4.87;;;23.80;28.00;;;;;;2253817;61;20360;-64
2021/10/29 06:02:47;0.00;0.00;0.62;0.00;0.00;0.62;6.90;4.77;;;23.80;28.00;;;;;;2253735;61;20947;-64
2021/10/29 06:05:32;0.00;0.00;0.62;0.00;0.00;0.62;6.83;6.13;;;23.80;28.00;;;;;;2253878;61;20384;-63
2021/10/29 06:08:20;0.00;0.00;0.62;0.00;0.00;0.62;5.30;4.80;;;23.80;28.00;;;;;;2253811;61;20364;-64
2021/10/29 06:11:05;0.00;0.00;0.62;0.00;0.00;0.62;6.40;5.40;;;23.80;28.00;;;;;;2254036;61;20408;-64
2021/10/29 06:13:49;0.00;0.00;0.62;0.00;0.00;0.62;7.57;6.60;;;23.80;28.00;;;;;;2253824;61;20423;-62
2021/10/29 06:16:34;0.00;0.00;0.62;0.00;0.00;0.62;6.23;5.47;;;23.80;28.00;;;;;;2253377;61;20880;-65
2021/10/29 06:19:20;0.00;0.00;0.62;0.00;0.00;0.62;6.63;5.63;;;23.80;27.90;;;;;;2254262;61;20411;-63
2021/10/29 06:22:11;0.00;0.00;0.62;0.00;0.00;0.62;6.87;5.57;;;23.80;28.00;;;;;;2253847;61;20356;-64
2021/10/29 06:24:57;0.00;0.00;0.62;0.00;0.00;0.62;7.43;6.67;;;23.80;27.90;;;;;;2253522;61;20404;-63
2021/10/29 06:30:47;0.00;0.00;0.62;0.00;0.00;0.62;9.07;6.40;;;23.70;27.90;;;;;;2253788;61;20356;-63
2021/10/29 06:33:32;0.00;0.00;0.62;0.00;0.00;0.62;7.10;6.07;;;23.70;27.90;;;;;;2254061;61;20352;-63
2021/10/29 06:36:18;0.00;0.00;0.62;0.00;0.00;0.62;6.57;5.77;;;23.70;28.00;;;;;;2253512;61;20379;-65
2021/10/29 06:39:03;0.00;0.00;0.62;0.00;0.00;0.62;7.17;6.37;;;23.70;28.00;;;;;;2253545;61;20787;-63
2021/10/29 06:41:48;0.00;0.00;0.62;0.00;0.00;0.62;7.30;6.50;;;23.60;28.00;;;;;;2254034;61;20444;-63
2021/10/29 06:59:57;0.00;0.00;0.62;0.00;0.00;0.62;8.10;6.50;;;23.50;28.00;;;;;;2253631;61;20391;-62
2021/10/29 07:03:13;0.00;0.00;0.62;0.00;0.00;0.62;8.47;6.63;;;23.40;28.00;;;;;;2253700;61;20431;-63
2021/10/29 07:42:45;0.00;0.00;0.62;0.00;0.00;0.62;5.90;4.73;;;23.50;28.40;;;;;;2253396;61;20422;-65
2021/10/29 07:45:30;0.00;0.00;0.62;0.00;0.00;0.62;6.50;5.40;;;23.50;28.40;;;;;;2251237;61;20459;-66
2021/10/29 07:48:15;0.00;0.00;0.62;0.00;0.00;0.62;6.13;4.93;;;23.50;28.40;;;;;;2253855;61;20360;-66
2021/10/29 07:51:00;0.00;0.00;0.62;0.00;0.00;0.62;6.47;5.27;;;23.60;28.50;;;;;;2253593;61;20720;-64
2021/10/29 07:53:45;0.00;0.00;0.62;0.00;0.00;0.62;7.60;5.30;;;23.60;28.50;;;;;;2253253;61;20367;-64
2021/10/29 07:56:31;0.00;0.00;0.62;0.00;0.00;0.62;6.40;4.90;;;23.60;28.40;;;;;;2253724;61;20375;-62
2021/10/29 07:59:16;0.00;0.00;0.62;0.00;0.00;0.62;5.23;4.70;;;23.60;28.40;;;;;;2253733;61;20716;-62
2021/10/29 08:02:00;0.00;0.00;0.62;0.00;0.00;0.62;5.47;4.23;;;23.70;28.50;;;;;;2253713;61;20743;-63
2021/10/29 08:04:46;0.00;0.00;0.62;0.00;0.00;0.62;7.93;5.80;;;23.70;28.40;;;;;;2253728;61;20763;-62
2021/10/29 08:07:31;0.00;0.00;0.62;0.00;0.00;0.62;6.63;5.43;;;23.70;28.40;;;;;;2252927;61;20375;-62
2021/10/29 08:10:16;0.00;0.00;0.62;0.00;0.00;0.62;5.80;5.20;;;23.80;28.50;;;;;;2253670;61;20731;-63
2021/10/29 08:13:04;0.00;0.00;0.62;0.00;0.00;0.62;7.70;5.90;;;23.80;28.40;;;;;;2253273;61;20387;-62
2021/10/29 08:15:53;0.00;0.00;0.62;0.00;0.00;0.62;6.13;5.20;;;23.80;28.40;;;;;;2252891;61;20760;-62
2021/10/29 08:18:44;0.00;0.00;0.62;0.00;0.00;0.62;6.30;4.97;;;23.80;28.30;;;;;;2253871;61;20356;-65
2021/10/29 08:21:29;0.00;0.00;0.62;0.00;0.00;0.62;6.03;4.90;;;23.80;28.30;;;;;;2253643;61;20351;-62
2021/10/29 08:24:14;0.00;0.00;0.62;0.00;0.00;0.62;6.13;5.53;;;23.80;28.40;;;;;;2253702;61;20432;-62
2021/10/29 08:27:00;0.00;0.00;0.62;0.00;0.00;0.62;5.97;5.27;;;23.90;28.40;;;;;;2253707;61;20399;-63
2021/10/29 08:29:47;0.00;0.00;0.62;0.00;0.00;0.62;5.70;4.90;;;23.90;28.40;;;;;;2253323;61;20752;-63
2021/10/29 08:32:32;0.00;0.00;0.62;0.00;0.00;0.62;7.30;5.20;;;23.90;28.40;;;;;;2254400;61;20371;-63
2021/10/29 08:35:18;0.00;0.00;0.62;0.00;0.00;0.62;5.97;4.80;;;23.90;28.40;;;;;;2254262;61;20342;-61
2021/10/29 08:38:03;0.00;0.00;0.62;0.00;0.00;0.62;5.87;4.83;;;24.00;28.40;;;;;;2253727;61;20407;-62
2021/10/29 08:40:48;0.00;0.00;0.62;0.00;0.00;0.62;7.10;5.80;;;24.00;28.30;;;;;;2254695;61;20398;-63
2021/10/29 08:43:33;0.00;0.00;0.62;0.00;0.00;0.62;6.37;4.83;;;24.00;28.30;;;;;;2254289;61;20440;-61
2021/10/29 08:46:20;0.00;0.00;0.62;0.00;0.00;0.62;4.43;3.73;;;24.00;28.90;;;;;;2254137;61;20418;-63
2021/10/29 08:49:07;0.00;0.00;0.62;0.00;0.00;0.62;4.50;3.43;;;24.10;28.40;;;;;;2254292;61;20368;-61
2021/10/29 08:51:52;0.00;0.00;0.62;0.00;0.00;0.62;4.47;2.90;;;24.10;28.40;;;;;;2253635;61;20444;-64
2021/10/29 08:54:36;0.00;0.00;0.62;0.00;0.00;0.62;3.90;3.40;;;24.10;28.40;;;;;;2254364;61;20756;-61
2021/10/29 08:57:22;0.00;0.00;0.62;0.00;0.00;0.62;4.00;2.90;;;24.20;28.50;;;;;;2254270;61;20380;-62
2021/10/29 09:00:16;0.00;0.00;0.62;0.00;0.00;0.62;3.83;3.20;;;24.20;28.50;;;;;;2253776;61;20410;-61
2021/10/29 09:03:13;0.00;0.00;0.62;0.00;0.00;0.62;6.93;3.80;;;24.30;28.60;;;;;;2254281;61;20360;-62
2021/10/29 09:09:32;0.00;0.00;0.62;0.00;0.00;0.62;6.50;3.93;;;24.30;28.60;;;;;;2253202;61;20384;-63
2021/10/29 09:31:26;0.00;0.00;0.62;0.00;0.00;0.62;2.87;2.50;;;24.60;28.70;;;;;;2254193;61;20380;-61
2021/10/29 09:34:15;0.00;0.00;0.62;0.00;0.00;0.62;2.93;2.13;;;24.60;28.70;;;;;;2254191;61;20827;-63
2021/10/29 09:37:00;0.00;0.00;0.62;0.00;0.00;0.62;3.80;2.63;;;24.70;28.70;;;;;;2253584;61;20497;-62
2021/10/29 09:39:57;0.00;0.00;0.62;0.00;0.00;0.62;2.60;2.20;;;24.70;28.70;;;;;;2253727;61;20364;-59
2021/10/29 09:42:52;0.00;0.00;0.62;0.00;0.00;0.62;3.63;2.60;;;24.70;28.70;;;;;;2254198;61;20419;-62
2021/10/29 09:45:38;0.00;0.00;0.62;0.00;0.00;0.62;2.87;2.33;;;24.80;28.70;;;;;;2253998;61;20603;-61
2021/10/29 09:48:30;0.00;0.00;0.62;0.00;0.00;0.62;3.17;2.77;;;24.80;28.70;;;;;;2254264;61;20360;-60
2021/10/29 09:51:20;0.00;0.00;0.62;0.00;0.00;0.62;3.17;2.40;;;24.90;28.80;;;;;;2253400;61;20448;-63
2021/10/29 09:54:14;0.00;0.00;0.62;0.00;0.00;0.62;2.70;2.27;;;24.90;28.80;;;;;;2254167;61;20360;-62
2021/10/29 09:57:00;0.00;0.00;0.62;0.00;0.00;0.62;3.20;2.30;;;24.90;28.80;;;;;;2254036;61;20399;-61
2021/10/29 09:59:45;0.00;0.00;0.62;0.00;0.00;0.62;2.57;2.17;;;25.00;28.80;;;;;;2253655;61;20359;-62
2021/10/29 10:02:30;0.00;0.00;0.62;0.00;0.00;0.62;2.83;2.40;;;25.00;28.80;;;;;;2254057;61;20363;-61
2021/10/29 10:05:16;0.00;0.00;0.62;0.00;0.00;0.62;2.37;2.17;;;25.00;28.80;;;;;;2253464;61;20755;-62
2021/10/29 10:08:02;0.00;0.00;0.62;0.00;0.00;0.62;3.07;2.07;;;25.00;28.70;;;;;;2254151;61;20379;-60
2021/10/29 10:10:50;0.00;0.00;0.62;0.00;0.00;0.62;2.57;2.10;;;25.10;28.80;;;;;;2254067;61;20468;-63
2021/10/29 10:13:38;0.00;0.00;0.62;0.00;0.00;0.62;4.00;2.20;;;25.20;28.80;;;;;;2253542;61;20368;-63
2021/10/29 10:16:25;0.00;0.00;0.62;0.00;0.00;0.62;2.30;2.00;;;25.20;28.80;;;;;;2253926;61;20410;-61
2021/10/29 10:19:11;0.00;0.00;0.62;0.00;0.00;0.62;2.60;1.90;;;25.20;28.80;;;;;;2253971;61;20399;-62
2021/10/29 10:21:57;0.00;0.00;0.62;0.00;0.00;0.62;2.27;1.90;;;25.30;28.80;;;;;;2253588;61;20359;-62
2021/10/29 10:24:46;0.00;0.00;0.62;0.00;0.00;0.62;2.20;1.87;;;25.30;28.80;;;;;;2253902;61;20364;-63
2021/10/29 10:27:54;0.00;0.00;0.62;0.00;0.00;0.62;2.50;2.00;;;25.30;28.80;;;;;;2253488;61;20395;-62
2021/10/29 10:30:47;0.00;0.00;0.62;0.00;0.00;0.62;2.30;2.10;;;25.40;28.80;;;;;;2254030;61;20372;-62
2021/10/29 10:46:20;0.00;0.00;0.62;0.00;0.00;0.62;2.60;2.20;;;25.60;28.80;;;;;;2253774;61;20438;-62
2021/10/29 10:49:13;0.00;0.00;0.62;0.00;0.00;0.62;2.27;2.07;;;25.60;28.80;;;;;;2253928;61;20431;-62
2021/10/29 10:52:07;0.00;0.00;0.62;0.00;0.00;0.62;2.20;1.73;;;25.70;28.80;;;;;;2253464;61;20363;-62
2021/10/29 10:55:29;0.00;0.00;0.62;0.00;0.00;0.62;1.80;1.37;;;25.70;28.80;;;;;;2253935;61;20355;-62
2021/10/29 10:58:23;0.00;0.00;0.62;0.00;0.00;0.62;2.30;2.10;;;25.80;28.80;;;;;;2253131;61;20415;-62
2021/10/29 11:01:21;0.00;0.00;0.62;0.00;0.00;0.62;2.17;1.77;;;25.80;28.80;;;;;;2254085;61;20394;-62
2021/10/29 11:04:43;0.00;0.00;0.62;0.00;0.00;0.62;2.10;1.50;;;25.90;28.80;;;;;;2253924;61;20427;-62
2021/10/29 11:09:52;0.00;0.00;0.62;0.00;0.00;0.62;28.97;4.47;;;25.90;28.80;;;;;;2254066;61;20395;-62
2021/10/29 11:10:59;0.00;0.00;0.62;0.00;0.00;0.62;2.63;1.97;;;26.00;28.80;;;;;;2253715;61;20371;-62
2021/10/29 11:13:56;0.00;0.00;0.62;0.00;0.00;0.62;6.13;2.40;;;26.00;28.80;;;;;;2253233;61;20399;-62
2021/10/29 11:16:54;0.00;0.00;0.62;0.00;0.00;0.62;3.27;1.90;;;26.00;28.70;;;;;;2253959;61;20606;-62
2021/10/29 11:19:49;0.00;0.00;0.62;0.00;0.00;0.62;2.23;1.83;;;26.10;28.70;;;;;;2253204;61;20432;-62
2021/10/29 11:22:42;0.00;0.00;0.62;0.00;0.00;0.62;2.40;1.50;;;26.10;28.70;;;;;;2253989;61;20751;-62
2021/10/29 11:25:45;0.00;0.00;0.62;0.00;0.00;0.62;2.37;1.70;;;26.10;28.60;;;;;;2253574;61;20415;-62
2021/10/29 11:28:35;0.00;0.00;0.62;0.00;0.00;0.62;1.80;1.50;;;26.20;28.70;;;;;;2253197;61;20363;-61
2021/10/29 11:31:25;0.00;0.00;0.62;0.00;0.00;0.62;1.93;1.70;;;26.20;28.70;;;;;;2253907;61;20383;-62
2021/10/29 11:34:14;0.00;0.00;0.62;0.00;0.00;0.62;1.83;1.60;;;26.20;28.70;;;;;;2253128;61;20732;-61
2021/10/29 11:36:59;0.00;0.00;0.62;0.00;0.00;0.62;2.07;1.70;;;26.20;28.60;;;;;;2254048;61;20448;-63
2021/10/29 11:39:44;0.00;0.00;0.62;0.00;0.00;0.62;1.90;1.53;;;26.20;28.60;;;;;;2253915;61;20391;-62
2021/10/29 11:42:29;0.00;0.00;0.62;0.00;0.00;0.62;1.90;1.30;;;26.20;28.50;;;;;;2253136;61;20399;-62
2021/10/29 11:45:28;0.00;0.00;0.62;0.00;0.00;0.62;1.90;1.60;;;26.30;28.60;;;;;;2253711;61;20755;-62
2021/10/29 11:48:13;0.00;0.00;0.62;0.00;0.00;0.62;1.50;1.20;;;26.30;28.60;;;;;;2253516;61;20589;-62
2021/10/29 11:51:09;0.00;0.00;0.62;0.00;0.00;0.62;1.77;1.23;;;26.30;28.60;;;;;;2253349;61;20589;-62
2021/10/29 11:54:00;0.00;0.00;0.62;0.00;0.00;0.62;2.10;1.40;;;26.30;28.50;;;;;;2253846;61;20655;-60
2021/10/29 12:08:37;0.00;0.00;0.62;0.00;0.00;0.62;1.80;1.30;;;26.30;28.50;;;;;;2253980;61;20579;-63
2021/10/29 12:11:22;0.00;0.00;0.62;0.00;0.00;0.62;1.77;1.23;;;26.40;28.50;;;;;;2253019;61;20379;-61
2021/10/29 12:14:07;0.00;0.00;0.62;0.00;0.00;0.62;1.70;1.20;;;26.40;28.50;;;;;;2253771;61;20367;-62
2021/10/29 12:16:55;0.00;0.00;0.62;0.00;0.00;0.62;2.00;1.67;;;26.40;28.50;;;;;;2253661;61;20411;-62
2021/10/29 12:19:44;0.00;0.00;0.62;0.00;0.00;0.62;1.80;1.30;;;26.40;28.50;;;;;;2253241;61;20716;-62
2021/10/29 12:22:36;0.00;0.00;0.62;0.00;0.00;0.62;1.73;1.40;;;26.50;28.50;;;;;;2253813;61;20487;-62
2021/10/29 12:28:19;0.00;0.00;0.62;0.00;0.00;0.62;1.73;1.20;;;26.50;28.60;;;;;;2253441;61;20393;-62
2021/10/29 12:31:23;0.00;0.00;0.62;0.00;0.00;0.62;2.00;1.63;;;26.50;28.60;;;;;;2253244;61;20375;-62
2021/10/29 12:34:28;0.00;0.00;0.62;0.00;0.00;0.62;3.23;1.30;;;26.60;28.70;;;;;;2253091;61;20483;-61
2021/10/29 12:37:57;0.00;0.00;0.62;0.00;0.00;0.62;1.60;1.13;;;26.60;28.70;;;;;;2253579;61;20804;-61
2021/10/29 13:02:03;0.00;0.00;0.62;0.00;0.00;0.62;1.70;1.30;;;26.80;28.60;;;;;;2253553;61;20366;-62
2021/10/29 13:04:53;0.00;0.00;0.62;0.00;0.00;0.62;1.70;1.57;;;26.80;28.60;;;;;;2252975;61;20359;-61
2021/10/29 13:07:37;0.00;0.00;0.62;0.00;0.00;0.62;1.70;1.20;;;26.80;28.60;;;;;;2253605;61;20384;-61
2021/10/29 13:10:24;0.00;0.00;0.62;0.00;0.00;0.62;1.80;1.20;;;26.90;28.70;;;;;;2253035;61;20368;-61
2021/10/29 13:13:15;0.00;0.00;0.62;0.00;0.00;0.62;1.60;1.30;;;26.90;28.60;;;;;;2253385;61;20364;-62